AAL12 KLAX-LSGG
Flight info
| Callsign | AAL12 |
|---|---|
| Flight time | N/A |
| Altitude | 33000 |
| Route | OSHNN1 BEALE DCT BAWER DCT PACES DCT VOAXA DCT BICAR Q88 CHUWY DCT HUTEP DCT UFFDA DCT WELOK DCT DLH Q924 VURLY/N0485F350 Q924 MECNU DCT REVUB DCT 52N080W 55N070W 57N060W DCT AVUTI/M084F350 DCT 58N050W 58N040W 57N030W 56N020W DCT RESNO/N0480F350 DCT NETKI DCT CON/N0479F370 DCT KLY DCT LIPGO DCT NUCHU DCT BOGNA UL612 RESMI UM975 PEKIM/N0500F310 DCT PILUL/N0487F270 DCT PIMUP DCT PIXIS DCT PIBAT/N0458F230 DCT LUSAR |
| Aircraft | B77W/H-SDE1E2E3FGHIJ2J3J4J5M1RWXY/LB1D1 |
Departure
| Time | 2026-04-23 23:48 |
|---|---|
| Airport | Los Angeles International Airport (KLAX) |
Arrival
| Time | N/A |
|---|---|
| Airport | Geneva International Airport (LSGG) |
| Time | Latitude | Longitude | Altitude | Speed | Heading |
|---|---|---|---|---|---|
| 2026-04-23 23:23 | 33.94021 | -118.41079 | 132 ft | 0 kts | 83° |
| 2026-04-23 23:34 | 33.94020 | -118.41087 | 132 ft | 2 kts | 83° |
| 2026-04-23 23:34 | 33.94019 | -118.41105 | 132 ft | 2 kts | 83° |
| 2026-04-23 23:34 | 33.94017 | -118.41123 | 132 ft | 2 kts | 83° |
| 2026-04-23 23:35 | 33.94015 | -118.41141 | 131 ft | 2 kts | 86° |
| 2026-04-23 23:35 | 33.94016 | -118.41158 | 131 ft | 2 kts | 110° |
| 2026-04-23 23:35 | 33.94023 | -118.41174 | 131 ft | 2 kts | 131° |
| 2026-04-23 23:35 | 33.94033 | -118.41185 | 131 ft | 2 kts | 150° |
| 2026-04-23 23:36 | 33.94047 | -118.41191 | 131 ft | 1 kts | 169° |
| 2026-04-23 23:36 | 33.94052 | -118.41192 | 131 ft | 0 kts | 174° |
| 2026-04-23 23:39 | 33.94051 | -118.41192 | 131 ft | 0 kts | 174° |
| 2026-04-23 23:39 | 33.94028 | -118.41189 | 131 ft | 5 kts | 173° |
| 2026-04-23 23:39 | 33.93979 | -118.41182 | 132 ft | 8 kts | 173° |
| 2026-04-23 23:40 | 33.93925 | -118.41174 | 132 ft | 7 kts | 174° |
| 2026-04-23 23:40 | 33.93869 | -118.41167 | 132 ft | 8 kts | 174° |
| 2026-04-23 23:40 | 33.93813 | -118.41159 | 132 ft | 7 kts | 173° |
| 2026-04-23 23:40 | 33.93782 | -118.41152 | 133 ft | 3 kts | 155° |
| 2026-04-23 23:41 | 33.93769 | -118.41136 | 133 ft | 3 kts | 117° |
| 2026-04-23 23:41 | 33.93769 | -118.41091 | 133 ft | 9 kts | 83° |
| 2026-04-23 23:41 | 33.93780 | -118.40986 | 133 ft | 18 kts | 83° |
| 2026-04-23 23:41 | 33.93798 | -118.40797 | 133 ft | 27 kts | 83° |
| 2026-04-23 23:42 | 33.93823 | -118.40555 | 131 ft | 32 kts | 83° |
| 2026-04-23 23:42 | 33.93849 | -118.40298 | 128 ft | 30 kts | 83° |
| 2026-04-23 23:42 | 33.93872 | -118.40072 | 125 ft | 29 kts | 83° |
| 2026-04-23 23:42 | 33.93892 | -118.39867 | 122 ft | 28 kts | 83° |
| 2026-04-23 23:43 | 33.93916 | -118.39643 | 120 ft | 26 kts | 83° |
| 2026-04-23 23:43 | 33.93938 | -118.39428 | 117 ft | 25 kts | 83° |
| 2026-04-23 23:43 | 33.93959 | -118.39226 | 115 ft | 23 kts | 83° |
| 2026-04-23 23:43 | 33.93977 | -118.39044 | 114 ft | 21 kts | 83° |
| 2026-04-23 23:44 | 33.93994 | -118.38876 | 113 ft | 19 kts | 83° |
| 2026-04-23 23:44 | 33.94009 | -118.38722 | 112 ft | 17 kts | 83° |
| 2026-04-23 23:44 | 33.94024 | -118.38586 | 111 ft | 15 kts | 83° |
| 2026-04-23 23:44 | 33.94037 | -118.38463 | 111 ft | 14 kts | 83° |
| 2026-04-23 23:45 | 33.94049 | -118.38352 | 110 ft | 12 kts | 83° |
| 2026-04-23 23:45 | 33.94058 | -118.38255 | 110 ft | 11 kts | 83° |
| 2026-04-23 23:45 | 33.94067 | -118.38168 | 110 ft | 10 kts | 83° |
| 2026-04-23 23:45 | 33.94074 | -118.38087 | 109 ft | 9 kts | 83° |
| 2026-04-23 23:46 | 33.94078 | -118.38030 | 109 ft | 4 kts | 99° |
| 2026-04-23 23:46 | 33.94062 | -118.38013 | 109 ft | 3 kts | 163° |
| 2026-04-23 23:46 | 33.94028 | -118.38004 | 109 ft | 6 kts | 167° |
| 2026-04-23 23:46 | 33.93996 | -118.38000 | 109 ft | 1 kts | 186° |
| 2026-04-23 23:47 | 33.93991 | -118.38003 | 109 ft | 0 kts | 212° |
| 2026-04-23 23:47 | 33.93984 | -118.38016 | 109 ft | 5 kts | 252° |
| 2026-04-23 23:47 | 33.93974 | -118.38107 | 109 ft | 19 kts | 263° |
| 2026-04-23 23:47 | 33.93935 | -118.38497 | 111 ft | 80 kts | 263° |
| 2026-04-23 23:48 | 33.93842 | -118.39462 | 117 ft | 148 kts | 262° |
| 2026-04-23 23:48 | 33.93693 | -118.40868 | 223 ft | 195 kts | 262° |
| 2026-04-23 23:48 | 33.93514 | -118.42487 | 898 ft | 206 kts | 262° |
| 2026-04-23 23:48 | 33.93340 | -118.44173 | 1829 ft | 199 kts | 263° |
| 2026-04-23 23:49 | 33.92181 | -118.47383 | 2194 ft | 231 kts | 233° |
| 2026-04-23 23:49 | 33.91136 | -118.48969 | 2421 ft | 249 kts | 233° |
| 2026-04-23 23:49 | 33.89996 | -118.50631 | 2809 ft | 260 kts | 231° |
| 2026-04-23 23:50 | 33.88828 | -118.52276 | 3349 ft | 263 kts | 231° |
| 2026-04-23 23:50 | 33.87632 | -118.53971 | 3897 ft | 267 kts | 231° |
| 2026-04-23 23:50 | 33.86149 | -118.55390 | 4359 ft | 275 kts | 205° |
| 2026-04-23 23:50 | 33.84301 | -118.55855 | 4841 ft | 279 kts | 178° |
| 2026-04-23 23:51 | 33.82360 | -118.55517 | 5405 ft | 280 kts | 168° |
| 2026-04-23 23:51 | 33.80441 | -118.54996 | 5923 ft | 283 kts | 167° |
| 2026-04-23 23:51 | 33.78492 | -118.54456 | 6438 ft | 286 kts | 167° |
| 2026-04-23 23:51 | 33.76559 | -118.53928 | 6996 ft | 287 kts | 168° |
| 2026-04-23 23:52 | 33.74604 | -118.53400 | 7495 ft | 290 kts | 168° |
| 2026-04-23 23:52 | 33.72612 | -118.52862 | 8017 ft | 292 kts | 168° |
| 2026-04-23 23:52 | 33.70719 | -118.51956 | 8433 ft | 297 kts | 144° |
| 2026-04-23 23:52 | 33.69292 | -118.50153 | 8866 ft | 299 kts | 119° |
| 2026-04-23 23:53 | 33.68450 | -118.47881 | 9323 ft | 301 kts | 110° |
| 2026-04-23 23:53 | 33.67750 | -118.45497 | 9770 ft | 305 kts | 109° |
| 2026-04-23 23:53 | 33.67041 | -118.43047 | 10130 ft | 312 kts | 109° |
| 2026-04-23 23:53 | 33.66309 | -118.40553 | 10258 ft | 328 kts | 110° |
| 2026-04-23 23:54 | 33.65522 | -118.37895 | 10391 ft | 345 kts | 110° |
| 2026-04-23 23:54 | 33.64778 | -118.35049 | 10502 ft | 362 kts | 102° |
| 2026-04-23 23:54 | 33.64447 | -118.32020 | 10648 ft | 377 kts | 91° |
| 2026-04-23 23:54 | 33.64428 | -118.28799 | 10826 ft | 392 kts | 89° |
| 2026-04-23 23:55 | 33.64473 | -118.25440 | 11117 ft | 403 kts | 84° |
| 2026-04-23 23:55 | 33.64945 | -118.22107 | 11562 ft | 408 kts | 73° |
| 2026-04-23 23:55 | 33.65935 | -118.18912 | 12119 ft | 410 kts | 62° |
| 2026-04-23 23:55 | 33.67400 | -118.15981 | 12705 ft | 411 kts | 51° |
| 2026-04-23 23:56 | 33.69315 | -118.13389 | 13282 ft | 412 kts | 39° |
| 2026-04-23 23:56 | 33.71575 | -118.11237 | 13879 ft | 414 kts | 32° |
| 2026-04-23 23:56 | 33.73930 | -118.09225 | 14604 ft | 418 kts | 32° |
| 2026-04-23 23:56 | 33.76324 | -118.07157 | 15331 ft | 423 kts | 32° |
| 2026-04-23 23:57 | 33.78746 | -118.05041 | 16013 ft | 429 kts | 32° |
| 2026-04-23 23:57 | 33.81149 | -118.02921 | 16670 ft | 434 kts | 32° |
| 2026-04-23 23:57 | 33.83622 | -118.00726 | 17340 ft | 439 kts | 32° |
| 2026-04-23 23:57 | 33.86109 | -117.98507 | 17981 ft | 445 kts | 32° |
| 2026-04-23 23:58 | 33.88609 | -117.96271 | 18614 ft | 450 kts | 32° |
| 2026-04-23 23:58 | 33.91153 | -117.93986 | 19330 ft | 452 kts | 32° |
| 2026-04-23 23:58 | 33.93684 | -117.91688 | 19988 ft | 456 kts | 33° |
| 2026-04-23 23:58 | 33.96209 | -117.89382 | 20629 ft | 460 kts | 33° |
| 2026-04-23 23:59 | 33.98776 | -117.87037 | 21263 ft | 464 kts | 33° |
| 2026-04-23 23:59 | 34.01384 | -117.84652 | 21877 ft | 468 kts | 33° |
| 2026-04-23 23:59 | 34.03999 | -117.82257 | 22465 ft | 472 kts | 33° |
| 2026-04-23 23:59 | 34.06614 | -117.79861 | 22995 ft | 477 kts | 33° |
| 2026-04-24 00:00 | 34.09168 | -117.77197 | 23504 ft | 486 kts | 41° |
| 2026-04-24 00:00 | 34.11407 | -117.74124 | 24029 ft | 493 kts | 47° |
| 2026-04-24 00:00 | 34.13608 | -117.70868 | 24635 ft | 496 kts | 47° |
| 2026-04-24 00:00 | 34.15786 | -117.67628 | 25165 ft | 500 kts | 47° |
| 2026-04-24 00:01 | 34.17992 | -117.64346 | 25605 ft | 505 kts | 47° |
| 2026-04-24 00:01 | 34.20211 | -117.61045 | 26054 ft | 510 kts | 47° |
| 2026-04-24 00:01 | 34.22446 | -117.57716 | 26575 ft | 512 kts | 47° |
| 2026-04-24 00:01 | 34.24730 | -117.54313 | 27034 ft | 517 kts | 47° |
| 2026-04-24 00:02 | 34.26985 | -117.50949 | 27441 ft | 522 kts | 47° |
| 2026-04-24 00:02 | 34.29288 | -117.47512 | 27915 ft | 525 kts | 47° |
| 2026-04-24 00:02 | 34.31618 | -117.44032 | 28341 ft | 529 kts | 47° |
| 2026-04-24 00:02 | 34.33940 | -117.40561 | 28779 ft | 533 kts | 47° |
| 2026-04-24 00:03 | 34.36283 | -117.37054 | 29202 ft | 537 kts | 47° |
| 2026-04-24 00:03 | 34.38631 | -117.33538 | 29666 ft | 539 kts | 48° |
| 2026-04-24 00:03 | 34.41025 | -117.29948 | 30130 ft | 541 kts | 48° |
| 2026-04-24 00:03 | 34.43393 | -117.26395 | 30627 ft | 542 kts | 47° |
| 2026-04-24 00:04 | 34.45775 | -117.22815 | 31187 ft | 542 kts | 47° |
| 2026-04-24 00:04 | 34.48128 | -117.19276 | 31716 ft | 541 kts | 47° |
| 2026-04-24 00:04 | 34.50515 | -117.15684 | 32183 ft | 541 kts | 47° |
| 2026-04-24 00:04 | 34.52863 | -117.12145 | 32621 ft | 542 kts | 47° |
| 2026-04-24 00:05 | 34.55245 | -117.08566 | 32975 ft | 543 kts | 46° |
| 2026-04-24 00:05 | 34.57648 | -117.05061 | 33005 ft | 546 kts | 46° |
| 2026-04-24 00:05 | 34.62466 | -116.98063 | 33013 ft | 542 kts | 46° |
| 2026-04-24 00:06 | 34.67228 | -116.91126 | 33016 ft | 542 kts | 46° |
| 2026-04-24 00:06 | 34.72029 | -116.84113 | 33022 ft | 542 kts | 46° |
| 2026-04-24 00:07 | 34.76817 | -116.77101 | 33033 ft | 542 kts | 46° |
| 2026-04-24 00:07 | 34.81617 | -116.70055 | 33019 ft | 541 kts | 46° |
| 2026-04-24 00:08 | 34.86369 | -116.63081 | 32994 ft | 538 kts | 44° |
| 2026-04-24 00:08 | 34.91407 | -116.56351 | 32983 ft | 538 kts | 42° |
| 2026-04-24 00:09 | 34.96392 | -116.49737 | 32977 ft | 539 kts | 43° |
| 2026-04-24 00:09 | 35.01434 | -116.43011 | 32958 ft | 539 kts | 42° |
| 2026-04-24 00:10 | 35.06453 | -116.36290 | 32961 ft | 538 kts | 43° |
| 2026-04-24 00:10 | 35.11486 | -116.29527 | 32946 ft | 537 kts | 43° |
| 2026-04-24 00:11 | 35.16488 | -116.22791 | 32954 ft | 538 kts | 43° |
| 2026-04-24 00:11 | 35.21459 | -116.16079 | 32947 ft | 537 kts | 43° |
| 2026-04-24 00:12 | 35.26425 | -116.09360 | 32947 ft | 538 kts | 43° |
| 2026-04-24 00:12 | 35.31430 | -116.02575 | 32943 ft | 538 kts | 43° |
| 2026-04-24 00:13 | 35.36405 | -115.95815 | 32954 ft | 536 kts | 43° |
| 2026-04-24 00:13 | 35.41375 | -115.89050 | 32978 ft | 537 kts | 43° |
| 2026-04-24 00:14 | 35.46356 | -115.82255 | 32993 ft | 536 kts | 43° |
| 2026-04-24 00:14 | 35.51300 | -115.75497 | 33000 ft | 537 kts | 43° |
| 2026-04-24 00:15 | 35.56215 | -115.68765 | 33003 ft | 537 kts | 43° |
| 2026-04-24 00:15 | 35.61191 | -115.61937 | 33008 ft | 538 kts | 43° |
| 2026-04-24 00:16 | 35.66160 | -115.55103 | 33017 ft | 539 kts | 43° |
| 2026-04-24 00:16 | 35.71133 | -115.48251 | 33023 ft | 538 kts | 43° |
| 2026-04-24 00:17 | 35.76102 | -115.41389 | 33017 ft | 539 kts | 43° |
| 2026-04-24 00:17 | 35.81038 | -115.34558 | 33019 ft | 540 kts | 43° |
| 2026-04-24 00:18 | 35.85985 | -115.27698 | 32991 ft | 540 kts | 43° |
| 2026-04-24 00:18 | 35.90975 | -115.20763 | 32973 ft | 541 kts | 43° |
| 2026-04-24 00:19 | 35.95931 | -115.13863 | 32962 ft | 542 kts | 43° |
| 2026-04-24 00:19 | 36.00894 | -115.06936 | 32962 ft | 542 kts | 43° |
| 2026-04-24 00:20 | 36.05870 | -114.99979 | 32956 ft | 541 kts | 43° |
| 2026-04-24 00:20 | 36.10824 | -114.93038 | 32952 ft | 541 kts | 43° |
| 2026-04-24 00:21 | 36.15757 | -114.86113 | 32956 ft | 542 kts | 43° |
| 2026-04-24 00:21 | 36.20503 | -114.78835 | 32956 ft | 548 kts | 49° |
| 2026-04-24 00:22 | 36.24975 | -114.71256 | 32963 ft | 546 kts | 49° |
| 2026-04-24 00:22 | 36.29462 | -114.63633 | 32962 ft | 547 kts | 49° |
| 2026-04-24 00:23 | 36.33931 | -114.56028 | 32958 ft | 547 kts | 49° |
| 2026-04-24 00:23 | 36.38426 | -114.48367 | 32950 ft | 547 kts | 49° |
| 2026-04-24 00:24 | 36.42901 | -114.40721 | 32956 ft | 548 kts | 48° |
| 2026-04-24 00:24 | 36.47392 | -114.33034 | 32941 ft | 548 kts | 49° |
| 2026-04-24 00:25 | 36.51864 | -114.25361 | 32940 ft | 548 kts | 49° |
| 2026-04-24 00:25 | 36.56350 | -114.17648 | 32948 ft | 548 kts | 49° |
| 2026-04-24 00:26 | 36.60816 | -114.09952 | 32952 ft | 547 kts | 49° |
| 2026-04-24 00:26 | 36.65272 | -114.02257 | 32958 ft | 549 kts | 49° |
| 2026-04-24 00:27 | 36.69717 | -113.94560 | 32962 ft | 549 kts | 49° |
| 2026-04-24 00:27 | 36.74181 | -113.86816 | 32987 ft | 549 kts | 49° |
| 2026-04-24 00:28 | 36.78623 | -113.79091 | 33011 ft | 548 kts | 49° |
| 2026-04-24 00:28 | 36.83098 | -113.71294 | 33022 ft | 551 kts | 48° |
| 2026-04-24 00:29 | 36.87563 | -113.63490 | 33024 ft | 548 kts | 48° |
| 2026-04-24 00:29 | 36.91976 | -113.55763 | 33009 ft | 549 kts | 48° |
| 2026-04-24 00:30 | 36.96439 | -113.47932 | 32999 ft | 550 kts | 48° |
| 2026-04-24 00:30 | 37.00883 | -113.40113 | 33004 ft | 550 kts | 48° |
| 2026-04-24 00:31 | 37.05314 | -113.32301 | 33005 ft | 551 kts | 49° |
| 2026-04-24 00:31 | 37.09763 | -113.24438 | 33021 ft | 550 kts | 49° |
| 2026-04-24 00:32 | 37.14201 | -113.16575 | 33040 ft | 550 kts | 49° |
| 2026-04-24 00:32 | 37.18625 | -113.08720 | 33048 ft | 551 kts | 49° |
| 2026-04-24 00:33 | 37.23027 | -113.00885 | 33052 ft | 551 kts | 49° |
| 2026-04-24 00:33 | 37.27441 | -112.93012 | 33059 ft | 552 kts | 49° |
| 2026-04-24 00:34 | 37.31862 | -112.85104 | 33067 ft | 549 kts | 49° |
| 2026-04-24 00:34 | 37.36234 | -112.77269 | 33071 ft | 551 kts | 49° |
| 2026-04-24 00:35 | 37.40653 | -112.69328 | 33071 ft | 550 kts | 49° |
| 2026-04-24 00:35 | 37.45031 | -112.61443 | 33086 ft | 549 kts | 49° |
| 2026-04-24 00:36 | 37.49411 | -112.53538 | 33091 ft | 550 kts | 49° |
| 2026-04-24 00:36 | 37.53801 | -112.45592 | 33097 ft | 549 kts | 49° |
| 2026-04-24 00:37 | 37.58164 | -112.37682 | 33103 ft | 552 kts | 49° |
| 2026-04-24 00:37 | 37.62558 | -112.29672 | 33081 ft | 552 kts | 52° |
| 2026-04-24 00:38 | 37.66287 | -112.21112 | 33105 ft | 557 kts | 58° |
| 2026-04-24 00:38 | 37.69827 | -112.12424 | 33126 ft | 556 kts | 58° |
| 2026-04-24 00:39 | 37.73364 | -112.03706 | 33117 ft | 559 kts | 58° |
| 2026-04-24 00:39 | 37.76870 | -111.95039 | 33116 ft | 557 kts | 58° |
| 2026-04-24 00:40 | 37.80292 | -111.86551 | 33124 ft | 557 kts | 58° |
| 2026-04-24 00:40 | 37.83736 | -111.77985 | 33119 ft | 557 kts | 58° |
| 2026-04-24 00:41 | 37.87199 | -111.69352 | 33119 ft | 557 kts | 58° |
| 2026-04-24 00:41 | 37.90681 | -111.60645 | 33118 ft | 559 kts | 58° |
| 2026-04-24 00:42 | 37.94147 | -111.51949 | 33114 ft | 556 kts | 58° |
| 2026-04-24 00:42 | 37.97594 | -111.43284 | 33105 ft | 557 kts | 58° |
| 2026-04-24 00:43 | 38.01005 | -111.34681 | 33097 ft | 555 kts | 59° |
| 2026-04-24 00:43 | 38.04476 | -111.25904 | 33078 ft | 558 kts | 59° |
| 2026-04-24 00:44 | 38.07904 | -111.17210 | 33074 ft | 556 kts | 59° |
| 2026-04-24 00:44 | 38.11363 | -111.08412 | 33084 ft | 558 kts | 59° |
| 2026-04-24 00:45 | 38.14789 | -110.99673 | 33049 ft | 553 kts | 59° |
| 2026-04-24 00:45 | 38.18190 | -110.90975 | 33051 ft | 553 kts | 59° |
| 2026-04-24 00:46 | 38.21566 | -110.82315 | 33044 ft | 553 kts | 59° |
| 2026-04-24 00:46 | 38.24923 | -110.73682 | 33051 ft | 551 kts | 59° |
| 2026-04-24 00:47 | 38.28268 | -110.65054 | 33051 ft | 553 kts | 59° |
| 2026-04-24 00:47 | 38.31639 | -110.56332 | 33034 ft | 550 kts | 59° |
| 2026-04-24 00:48 | 38.34960 | -110.47720 | 33051 ft | 550 kts | 59° |
| 2026-04-24 00:48 | 38.38277 | -110.39092 | 33067 ft | 551 kts | 59° |
| 2026-04-24 00:49 | 38.41576 | -110.30482 | 33034 ft | 548 kts | 60° |
| 2026-04-24 00:49 | 38.44857 | -110.21903 | 33043 ft | 549 kts | 60° |
| 2026-04-24 00:50 | 38.48183 | -110.13175 | 33033 ft | 547 kts | 60° |
| 2026-04-24 00:50 | 38.51527 | -110.04378 | 33035 ft | 550 kts | 60° |
| 2026-04-24 00:51 | 38.54796 | -109.95755 | 33035 ft | 548 kts | 60° |
| 2026-04-24 00:51 | 38.57989 | -109.87304 | 33022 ft | 546 kts | 60° |
| 2026-04-24 00:52 | 38.61183 | -109.78828 | 33018 ft | 546 kts | 60° |
| 2026-04-24 00:52 | 38.64355 | -109.70387 | 33015 ft | 546 kts | 60° |
| 2026-04-24 00:53 | 38.67569 | -109.61814 | 33064 ft | 548 kts | 60° |
| 2026-04-24 00:53 | 38.70808 | -109.53144 | 33044 ft | 544 kts | 60° |
| 2026-04-24 00:54 | 38.74003 | -109.44572 | 33038 ft | 545 kts | 61° |
| 2026-04-24 00:54 | 38.77204 | -109.35955 | 33051 ft | 543 kts | 60° |
| 2026-04-24 00:55 | 38.80417 | -109.27282 | 33024 ft | 544 kts | 61° |
| 2026-04-24 00:55 | 38.83604 | -109.18654 | 33028 ft | 542 kts | 61° |
| 2026-04-24 00:56 | 38.86816 | -109.09936 | 33041 ft | 542 kts | 61° |
| 2026-04-24 00:56 | 38.90026 | -109.01196 | 33067 ft | 542 kts | 62° |
| 2026-04-24 00:57 | 38.93220 | -108.92471 | 33065 ft | 541 kts | 61° |
| 2026-04-24 00:58 | 38.98004 | -108.79359 | 33046 ft | 538 kts | 62° |
| 2026-04-24 00:58 | 39.01154 | -108.70695 | 33044 ft | 539 kts | 62° |
| 2026-04-24 00:59 | 39.04317 | -108.61966 | 33041 ft | 538 kts | 62° |
| 2026-04-24 00:59 | 39.07489 | -108.53191 | 33038 ft | 539 kts | 62° |
| 2026-04-24 01:00 | 39.10636 | -108.44456 | 33031 ft | 537 kts | 61° |
| 2026-04-24 01:00 | 39.13754 | -108.35777 | 33046 ft | 540 kts | 61° |
| 2026-04-24 01:01 | 39.16906 | -108.26976 | 33032 ft | 537 kts | 62° |
| 2026-04-24 01:01 | 39.20113 | -108.18217 | 33064 ft | 541 kts | 61° |
| 2026-04-24 01:02 | 39.23321 | -108.09454 | 33077 ft | 537 kts | 61° |
| 2026-04-24 01:02 | 39.26514 | -108.00705 | 33078 ft | 539 kts | 61° |
| 2026-04-24 01:03 | 39.29707 | -107.91922 | 33077 ft | 539 kts | 61° |
| 2026-04-24 01:03 | 39.32869 | -107.83198 | 33086 ft | 537 kts | 61° |
| 2026-04-24 01:04 | 39.36046 | -107.74407 | 33098 ft | 538 kts | 61° |
| 2026-04-24 01:04 | 39.39205 | -107.65635 | 33126 ft | 536 kts | 61° |
| 2026-04-24 01:05 | 39.42344 | -107.56892 | 33087 ft | 536 kts | 61° |
| 2026-04-24 01:05 | 39.45463 | -107.48182 | 33127 ft | 537 kts | 61° |
| 2026-04-24 01:06 | 39.48600 | -107.39394 | 33146 ft | 535 kts | 61° |
| 2026-04-24 01:06 | 39.51711 | -107.30653 | 33122 ft | 537 kts | 62° |
| 2026-04-24 01:07 | 39.54834 | -107.21851 | 33109 ft | 537 kts | 62° |
| 2026-04-24 01:07 | 39.57953 | -107.13032 | 33117 ft | 536 kts | 62° |
| 2026-04-24 01:08 | 39.61039 | -107.04283 | 33104 ft | 536 kts | 62° |
| 2026-04-24 01:08 | 39.64137 | -106.95471 | 33088 ft | 534 kts | 62° |
| 2026-04-24 01:09 | 39.67213 | -106.86696 | 33087 ft | 535 kts | 62° |
| 2026-04-24 01:09 | 39.70297 | -106.77871 | 33077 ft | 535 kts | 62° |
| 2026-04-24 01:10 | 39.73378 | -106.69027 | 33093 ft | 534 kts | 62° |
| 2026-04-24 01:10 | 39.76454 | -106.60171 | 33084 ft | 536 kts | 62° |
| 2026-04-24 01:11 | 39.79709 | -106.51482 | 33083 ft | 531 kts | 54° |
| 2026-04-24 01:11 | 39.83690 | -106.43390 | 33065 ft | 530 kts | 52° |
| 2026-04-24 01:12 | 39.87693 | -106.35314 | 33071 ft | 528 kts | 52° |
| 2026-04-24 01:12 | 39.91674 | -106.27250 | 33050 ft | 529 kts | 53° |
| 2026-04-24 01:13 | 39.95632 | -106.19199 | 33047 ft | 528 kts | 53° |
| 2026-04-24 01:13 | 39.99605 | -106.11092 | 33073 ft | 530 kts | 53° |
| 2026-04-24 01:14 | 40.03547 | -106.03024 | 33042 ft | 529 kts | 53° |
| 2026-04-24 01:14 | 40.07496 | -105.94919 | 33073 ft | 527 kts | 53° |
| 2026-04-24 01:15 | 40.11412 | -105.86862 | 33071 ft | 527 kts | 53° |
| 2026-04-24 01:15 | 40.15337 | -105.78763 | 33051 ft | 527 kts | 53° |
| 2026-04-24 01:16 | 40.19267 | -105.70633 | 32998 ft | 527 kts | 53° |
| 2026-04-24 01:16 | 40.23190 | -105.62494 | 32964 ft | 526 kts | 53° |
| 2026-04-24 01:17 | 40.27081 | -105.54404 | 32981 ft | 527 kts | 53° |
| 2026-04-24 01:17 | 40.30959 | -105.46320 | 32971 ft | 527 kts | 53° |
| 2026-04-24 01:18 | 40.34842 | -105.38200 | 32975 ft | 526 kts | 53° |
| 2026-04-24 01:18 | 40.38693 | -105.30129 | 32939 ft | 525 kts | 54° |
| 2026-04-24 01:19 | 40.42560 | -105.22002 | 32952 ft | 525 kts | 54° |
| 2026-04-24 01:19 | 40.46415 | -105.13881 | 32924 ft | 523 kts | 54° |
| 2026-04-24 01:20 | 40.50286 | -105.05705 | 32907 ft | 525 kts | 54° |
| 2026-04-24 01:20 | 40.54134 | -104.97555 | 32896 ft | 524 kts | 54° |
| 2026-04-24 01:21 | 40.57955 | -104.89439 | 32902 ft | 526 kts | 54° |
| 2026-04-24 01:21 | 40.61786 | -104.81280 | 32916 ft | 523 kts | 54° |
| 2026-04-24 01:22 | 40.65605 | -104.73128 | 32932 ft | 524 kts | 54° |
| 2026-04-24 01:22 | 40.69420 | -104.64963 | 32907 ft | 523 kts | 54° |
| 2026-04-24 01:23 | 40.73256 | -104.56729 | 32908 ft | 523 kts | 54° |
| 2026-04-24 01:23 | 40.77018 | -104.48632 | 32902 ft | 521 kts | 54° |
| 2026-04-24 01:24 | 40.80820 | -104.40430 | 32915 ft | 520 kts | 54° |
| 2026-04-24 01:24 | 40.84579 | -104.32297 | 32886 ft | 521 kts | 55° |
| 2026-04-24 01:25 | 40.88320 | -104.24183 | 32896 ft | 523 kts | 55° |
| 2026-04-24 01:25 | 40.92094 | -104.15974 | 32866 ft | 520 kts | 56° |
| 2026-04-24 01:26 | 40.95861 | -104.07760 | 32853 ft | 523 kts | 56° |
| 2026-04-24 01:26 | 40.99601 | -103.99581 | 32899 ft | 520 kts | 55° |
| 2026-04-24 01:27 | 41.03336 | -103.91390 | 32910 ft | 520 kts | 56° |
| 2026-04-24 01:27 | 41.07045 | -103.83235 | 32877 ft | 520 kts | 56° |
| 2026-04-24 01:28 | 41.10766 | -103.75034 | 32888 ft | 520 kts | 56° |
| 2026-04-24 01:28 | 41.14472 | -103.66842 | 32871 ft | 519 kts | 56° |
| 2026-04-24 01:29 | 41.18177 | -103.58649 | 32876 ft | 519 kts | 55° |
| 2026-04-24 01:29 | 41.21988 | -103.50547 | 32873 ft | 515 kts | 55° |
| 2026-04-24 01:30 | 41.25783 | -103.42479 | 32885 ft | 517 kts | 55° |
| 2026-04-24 01:30 | 41.29579 | -103.34375 | 32854 ft | 515 kts | 56° |
| 2026-04-24 01:31 | 41.33358 | -103.26279 | 32837 ft | 516 kts | 56° |
| 2026-04-24 01:31 | 41.37117 | -103.18201 | 32846 ft | 516 kts | 56° |
| 2026-04-24 01:32 | 41.40868 | -103.10119 | 32847 ft | 516 kts | 56° |
| 2026-04-24 01:32 | 41.44633 | -103.01981 | 32840 ft | 515 kts | 56° |
| 2026-04-24 01:33 | 41.48387 | -102.93848 | 32822 ft | 516 kts | 56° |
| 2026-04-24 01:33 | 41.52116 | -102.85719 | 32834 ft | 516 kts | 57° |
| 2026-04-24 01:34 | 41.55746 | -102.77458 | 32852 ft | 516 kts | 57° |
| 2026-04-24 01:34 | 41.59336 | -102.69247 | 32850 ft | 515 kts | 57° |
| 2026-04-24 01:35 | 41.62949 | -102.60976 | 32812 ft | 517 kts | 58° |
| 2026-04-24 01:35 | 41.66567 | -102.52675 | 32831 ft | 517 kts | 58° |
| 2026-04-24 01:36 | 41.70180 | -102.44366 | 32851 ft | 518 kts | 58° |
| 2026-04-24 01:36 | 41.73762 | -102.36106 | 32837 ft | 516 kts | 58° |
| 2026-04-24 01:37 | 41.77364 | -102.27779 | 32836 ft | 517 kts | 58° |
| 2026-04-24 01:37 | 41.80953 | -102.19460 | 32821 ft | 517 kts | 58° |
| 2026-04-24 01:38 | 41.84549 | -102.11100 | 32813 ft | 517 kts | 58° |
| 2026-04-24 01:38 | 41.88121 | -102.02774 | 32845 ft | 517 kts | 58° |
| 2026-04-24 01:39 | 41.91687 | -101.94438 | 32829 ft | 516 kts | 58° |
| 2026-04-24 01:39 | 41.95250 | -101.86086 | 32836 ft | 517 kts | 59° |
| 2026-04-24 01:40 | 41.98821 | -101.77689 | 32833 ft | 517 kts | 59° |
| 2026-04-24 01:40 | 42.02370 | -101.69322 | 32836 ft | 517 kts | 59° |
| 2026-04-24 01:41 | 42.05915 | -101.60942 | 32840 ft | 517 kts | 59° |
| 2026-04-24 01:41 | 42.09452 | -101.52556 | 32833 ft | 518 kts | 59° |
| 2026-04-24 01:42 | 42.12998 | -101.44127 | 32838 ft | 517 kts | 59° |
| 2026-04-24 01:42 | 42.16528 | -101.35710 | 32813 ft | 518 kts | 59° |
| 2026-04-24 01:43 | 42.20037 | -101.27318 | 32819 ft | 518 kts | 59° |
| 2026-04-24 01:43 | 42.23562 | -101.18864 | 32835 ft | 517 kts | 60° |
| 2026-04-24 01:44 | 42.27068 | -101.10432 | 32818 ft | 517 kts | 60° |
| 2026-04-24 01:44 | 42.30579 | -101.01963 | 32821 ft | 516 kts | 60° |
| 2026-04-24 01:45 | 42.34057 | -100.93552 | 32826 ft | 517 kts | 60° |
| 2026-04-24 01:45 | 42.37573 | -100.85023 | 32811 ft | 518 kts | 60° |
| 2026-04-24 01:46 | 42.41060 | -100.76538 | 32817 ft | 519 kts | 60° |
| 2026-04-24 01:46 | 42.44554 | -100.68012 | 32825 ft | 520 kts | 60° |
| 2026-04-24 01:47 | 42.48053 | -100.59450 | 32804 ft | 519 kts | 60° |
| 2026-04-24 01:47 | 42.51527 | -100.50924 | 32811 ft | 521 kts | 60° |
| 2026-04-24 01:48 | 42.55022 | -100.42320 | 32795 ft | 520 kts | 60° |
| 2026-04-24 01:48 | 42.58498 | -100.33739 | 32801 ft | 520 kts | 61° |
| 2026-04-24 01:49 | 42.61942 | -100.25208 | 32809 ft | 519 kts | 61° |
| 2026-04-24 01:49 | 42.65416 | -100.16582 | 32816 ft | 521 kts | 61° |
| 2026-04-24 01:50 | 42.68879 | -100.07954 | 32803 ft | 520 kts | 61° |
| 2026-04-24 01:50 | 42.72337 | -99.99313 | 32813 ft | 520 kts | 61° |
| 2026-04-24 01:51 | 42.75768 | -99.90716 | 32813 ft | 520 kts | 62° |
| 2026-04-24 01:51 | 42.79209 | -99.82067 | 32809 ft | 521 kts | 62° |
| 2026-04-24 01:52 | 42.82664 | -99.73356 | 32804 ft | 521 kts | 62° |
| 2026-04-24 01:52 | 42.86399 | -99.64945 | 32809 ft | 522 kts | 56° |
| 2026-04-24 01:53 | 42.90463 | -99.56760 | 32801 ft | 524 kts | 56° |
| 2026-04-24 01:53 | 42.94516 | -99.48502 | 32800 ft | 524 kts | 56° |
| 2026-04-24 01:54 | 42.98535 | -99.40241 | 32792 ft | 524 kts | 56° |
| 2026-04-24 01:54 | 43.02533 | -99.31973 | 32787 ft | 526 kts | 57° |
| 2026-04-24 01:55 | 43.06532 | -99.23664 | 32786 ft | 524 kts | 57° |
| 2026-04-24 01:55 | 43.10525 | -99.15337 | 32785 ft | 524 kts | 57° |
| 2026-04-24 01:56 | 43.14511 | -99.06998 | 32782 ft | 526 kts | 58° |
| 2026-04-24 01:56 | 43.18495 | -98.98635 | 32784 ft | 528 kts | 58° |
| 2026-04-24 01:57 | 43.22491 | -98.90223 | 32786 ft | 526 kts | 58° |
| 2026-04-24 01:57 | 43.26471 | -98.81818 | 32777 ft | 528 kts | 58° |
| 2026-04-24 01:58 | 43.30464 | -98.73363 | 32781 ft | 527 kts | 58° |
| 2026-04-24 01:58 | 43.34432 | -98.64934 | 32779 ft | 527 kts | 58° |
| 2026-04-24 01:59 | 43.38407 | -98.56467 | 32778 ft | 529 kts | 59° |
| 2026-04-24 01:59 | 43.42394 | -98.47952 | 32777 ft | 528 kts | 59° |
| 2026-04-24 02:00 | 43.46351 | -98.39474 | 32772 ft | 528 kts | 59° |
| 2026-04-24 02:00 | 43.50286 | -98.31019 | 32764 ft | 527 kts | 60° |
| 2026-04-24 02:01 | 43.54232 | -98.22516 | 32764 ft | 526 kts | 61° |
| 2026-04-24 02:01 | 43.58145 | -98.14059 | 32764 ft | 528 kts | 61° |
| 2026-04-24 02:02 | 43.62078 | -98.05535 | 32765 ft | 527 kts | 61° |
| 2026-04-24 02:02 | 43.66003 | -97.97004 | 32762 ft | 525 kts | 62° |
| 2026-04-24 02:03 | 43.71843 | -97.84262 | 32742 ft | 529 kts | 62° |
| 2026-04-24 02:03 | 43.75754 | -97.75698 | 32737 ft | 527 kts | 62° |
| 2026-04-24 02:04 | 43.79660 | -97.67118 | 32747 ft | 532 kts | 62° |
| 2026-04-24 02:04 | 43.83577 | -97.58492 | 32739 ft | 530 kts | 63° |
| 2026-04-24 02:05 | 43.87503 | -97.49818 | 32736 ft | 533 kts | 64° |
| 2026-04-24 02:05 | 43.91398 | -97.41193 | 32734 ft | 528 kts | 64° |
| 2026-04-24 02:06 | 43.95300 | -97.32517 | 32731 ft | 532 kts | 65° |
| 2026-04-24 02:06 | 43.99208 | -97.23806 | 32731 ft | 533 kts | 65° |
| 2026-04-24 02:07 | 44.03096 | -97.15117 | 32728 ft | 530 kts | 66° |
| 2026-04-24 02:07 | 44.06970 | -97.06424 | 32733 ft | 536 kts | 66° |
| 2026-04-24 02:08 | 44.10896 | -96.97594 | 32715 ft | 534 kts | 66° |
| 2026-04-24 02:08 | 44.14787 | -96.88818 | 32705 ft | 534 kts | 66° |
| 2026-04-24 02:09 | 44.18659 | -96.80055 | 32705 ft | 531 kts | 67° |
| 2026-04-24 02:09 | 44.22523 | -96.71285 | 32696 ft | 531 kts | 67° |
| 2026-04-24 02:10 | 44.26341 | -96.62594 | 32699 ft | 528 kts | 67° |
| 2026-04-24 02:10 | 44.30163 | -96.53866 | 32685 ft | 525 kts | 67° |
| 2026-04-24 02:11 | 44.33998 | -96.45071 | 32693 ft | 532 kts | 68° |
| 2026-04-24 02:11 | 44.37797 | -96.36350 | 32681 ft | 526 kts | 68° |
| 2026-04-24 02:12 | 44.41565 | -96.27665 | 32688 ft | 525 kts | 69° |
| 2026-04-24 02:12 | 44.45338 | -96.18938 | 32686 ft | 528 kts | 69° |
| 2026-04-24 02:13 | 44.49147 | -96.10203 | 32683 ft | 527 kts | 66° |
| 2026-04-24 02:13 | 44.53937 | -96.02371 | 32683 ft | 538 kts | 56° |
| 2026-04-24 02:14 | 44.59127 | -95.94729 | 32682 ft | 542 kts | 56° |
| 2026-04-24 02:14 | 44.64294 | -95.87071 | 32680 ft | 542 kts | 56° |
| 2026-04-24 02:15 | 44.69444 | -95.79393 | 32683 ft | 541 kts | 56° |
| 2026-04-24 02:15 | 44.74603 | -95.71658 | 32677 ft | 543 kts | 56° |
| 2026-04-24 02:16 | 44.79739 | -95.63936 | 32682 ft | 543 kts | 56° |
| 2026-04-24 02:16 | 44.84893 | -95.56154 | 32677 ft | 543 kts | 56° |
| 2026-04-24 02:17 | 44.89990 | -95.48438 | 32673 ft | 542 kts | 56° |
| 2026-04-24 02:17 | 44.95105 | -95.40668 | 32669 ft | 541 kts | 56° |
| 2026-04-24 02:18 | 45.00232 | -95.32854 | 32652 ft | 544 kts | 56° |
| 2026-04-24 02:18 | 45.05301 | -95.25116 | 32648 ft | 540 kts | 56° |
| 2026-04-24 02:19 | 45.10393 | -95.17316 | 32643 ft | 538 kts | 56° |
| 2026-04-24 02:19 | 45.15472 | -95.09507 | 32618 ft | 544 kts | 56° |
| 2026-04-24 02:20 | 45.20540 | -95.01704 | 32613 ft | 540 kts | 56° |
| 2026-04-24 02:20 | 45.25620 | -94.93852 | 32630 ft | 543 kts | 56° |
| 2026-04-24 02:21 | 45.30685 | -94.86007 | 32625 ft | 540 kts | 56° |
| 2026-04-24 02:21 | 45.35765 | -94.78108 | 32623 ft | 544 kts | 56° |
| 2026-04-24 02:22 | 45.40841 | -94.70201 | 32625 ft | 542 kts | 55° |
| 2026-04-24 02:22 | 45.45898 | -94.62299 | 32619 ft | 539 kts | 55° |
| 2026-04-24 02:23 | 45.50941 | -94.54391 | 32615 ft | 543 kts | 54° |
| 2026-04-24 02:23 | 45.55953 | -94.46519 | 32610 ft | 536 kts | 55° |
| 2026-04-24 02:24 | 45.60996 | -94.38564 | 32609 ft | 541 kts | 55° |
| 2026-04-24 02:24 | 45.66012 | -94.30635 | 32610 ft | 539 kts | 55° |
| 2026-04-24 02:25 | 45.70958 | -94.22659 | 32597 ft | 535 kts | 58° |
| 2026-04-24 02:25 | 45.75593 | -94.14304 | 32615 ft | 537 kts | 59° |
| 2026-04-24 02:26 | 45.80194 | -94.05986 | 32614 ft | 534 kts | 59° |
| 2026-04-24 02:26 | 45.84830 | -93.97603 | 32609 ft | 539 kts | 58° |
| 2026-04-24 02:27 | 45.89458 | -93.89240 | 32600 ft | 533 kts | 58° |
| 2026-04-24 02:27 | 45.94072 | -93.80877 | 32592 ft | 536 kts | 58° |
| 2026-04-24 02:28 | 45.98670 | -93.72531 | 32597 ft | 535 kts | 58° |
| 2026-04-24 02:28 | 46.03248 | -93.64197 | 32591 ft | 531 kts | 57° |
| 2026-04-24 02:29 | 46.07791 | -93.55906 | 32584 ft | 529 kts | 57° |
| 2026-04-24 02:29 | 46.12375 | -93.47511 | 32567 ft | 532 kts | 57° |
| 2026-04-24 02:30 | 46.16888 | -93.39226 | 32558 ft | 529 kts | 57° |
| 2026-04-24 02:30 | 46.21418 | -93.30884 | 32577 ft | 528 kts | 58° |
| 2026-04-24 02:31 | 46.25922 | -93.22566 | 32562 ft | 525 kts | 58° |
| 2026-04-24 02:31 | 46.30428 | -93.14221 | 32565 ft | 524 kts | 57° |
| 2026-04-24 02:32 | 46.34853 | -93.05999 | 32574 ft | 523 kts | 57° |
| 2026-04-24 02:32 | 46.39299 | -92.97714 | 32557 ft | 521 kts | 57° |
| 2026-04-24 02:33 | 46.43739 | -92.89417 | 32540 ft | 519 kts | 57° |
| 2026-04-24 02:33 | 46.48129 | -92.81185 | 32548 ft | 521 kts | 57° |
| 2026-04-24 02:34 | 46.52553 | -92.72868 | 32540 ft | 520 kts | 57° |
| 2026-04-24 02:34 | 46.56941 | -92.64594 | 32543 ft | 518 kts | 57° |
| 2026-04-24 02:35 | 46.61335 | -92.56283 | 32554 ft | 520 kts | 57° |
| 2026-04-24 02:35 | 46.65701 | -92.48003 | 32551 ft | 516 kts | 57° |
| 2026-04-24 02:36 | 46.70074 | -92.39679 | 32560 ft | 520 kts | 56° |
| 2026-04-24 02:36 | 46.74452 | -92.31326 | 32562 ft | 518 kts | 57° |
| 2026-04-24 02:37 | 46.78783 | -92.23036 | 32565 ft | 516 kts | 57° |
| 2026-04-24 02:37 | 46.83206 | -92.14765 | 32572 ft | 519 kts | 56° |
| 2026-04-24 02:38 | 46.87736 | -92.06570 | 32576 ft | 519 kts | 55° |
| 2026-04-24 02:38 | 46.92248 | -91.98367 | 32572 ft | 520 kts | 55° |
| 2026-04-24 02:39 | 46.96712 | -91.90215 | 32576 ft | 521 kts | 55° |
| 2026-04-24 02:39 | 47.01188 | -91.82012 | 32582 ft | 519 kts | 55° |
| 2026-04-24 02:40 | 47.05707 | -91.73701 | 32587 ft | 518 kts | 55° |
| 2026-04-24 02:40 | 47.10169 | -91.65466 | 32594 ft | 519 kts | 54° |
| 2026-04-24 02:41 | 47.14663 | -91.57148 | 32581 ft | 518 kts | 54° |
| 2026-04-24 02:41 | 47.19114 | -91.48885 | 32576 ft | 518 kts | 54° |
| 2026-04-24 02:42 | 47.23542 | -91.40637 | 32572 ft | 519 kts | 54° |
| 2026-04-24 02:42 | 47.27502 | -91.33243 | 32571 ft | 517 kts | 55° |
| 2026-04-24 02:43 | 47.31947 | -91.24951 | 32564 ft | 516 kts | 54° |
| 2026-04-24 02:43 | 47.36422 | -91.16746 | 32562 ft | 516 kts | 55° |
| 2026-04-24 02:44 | 47.40822 | -91.08404 | 32570 ft | 515 kts | 55° |
| 2026-04-24 02:44 | 47.45176 | -91.00103 | 32576 ft | 515 kts | 55° |
| 2026-04-24 02:45 | 47.49545 | -90.91754 | 32576 ft | 516 kts | 54° |
| 2026-04-24 02:45 | 47.53917 | -90.83385 | 32580 ft | 516 kts | 54° |
| 2026-04-24 02:46 | 47.58327 | -90.74972 | 32587 ft | 517 kts | 54° |
| 2026-04-24 02:46 | 47.62715 | -90.66579 | 32590 ft | 517 kts | 54° |
| 2026-04-24 02:47 | 47.67104 | -90.58156 | 32608 ft | 517 kts | 54° |
| 2026-04-24 02:47 | 47.71505 | -90.49682 | 32645 ft | 518 kts | 54° |
| 2026-04-24 02:48 | 47.75888 | -90.41215 | 32625 ft | 521 kts | 54° |
| 2026-04-24 02:48 | 47.80252 | -90.32763 | 32652 ft | 517 kts | 55° |
| 2026-04-24 02:49 | 47.84671 | -90.24175 | 32648 ft | 525 kts | 54° |
| 2026-04-24 02:49 | 47.89086 | -90.15568 | 32640 ft | 523 kts | 54° |
| 2026-04-24 02:50 | 47.93489 | -90.06954 | 32636 ft | 526 kts | 54° |
| 2026-04-24 02:50 | 47.97901 | -89.98300 | 32630 ft | 526 kts | 53° |
| 2026-04-24 02:51 | 48.02632 | -89.90295 | 32634 ft | 525 kts | 47° |
| 2026-04-24 02:51 | 48.07549 | -89.82237 | 32644 ft | 527 kts | 48° |
| 2026-04-24 02:52 | 48.12434 | -89.74148 | 32662 ft | 526 kts | 48° |
| 2026-04-24 02:52 | 48.17354 | -89.65941 | 32643 ft | 527 kts | 48° |
| 2026-04-24 02:53 | 48.22226 | -89.57772 | 32656 ft | 526 kts | 48° |
| 2026-04-24 02:53 | 48.27080 | -89.49599 | 32671 ft | 529 kts | 48° |
| 2026-04-24 02:54 | 48.31959 | -89.41350 | 32676 ft | 525 kts | 48° |
| 2026-04-24 02:54 | 48.36803 | -89.33135 | 32651 ft | 526 kts | 49° |
| 2026-04-24 02:55 | 48.41654 | -89.24878 | 32696 ft | 529 kts | 49° |
| 2026-04-24 02:55 | 48.46511 | -89.16584 | 32686 ft | 524 kts | 48° |
| 2026-04-24 02:56 | 48.51329 | -89.08330 | 32706 ft | 526 kts | 48° |
| 2026-04-24 02:56 | 48.56119 | -89.00098 | 32706 ft | 520 kts | 48° |
| 2026-04-24 02:57 | 48.60871 | -88.91908 | 32716 ft | 523 kts | 48° |
| 2026-04-24 02:57 | 48.65629 | -88.83679 | 32723 ft | 518 kts | 48° |
| 2026-04-24 02:58 | 48.70318 | -88.75399 | 32718 ft | 521 kts | 53° |
| 2026-04-24 02:58 | 48.74400 | -88.66380 | 32728 ft | 519 kts | 56° |
| 2026-04-24 02:59 | 48.78426 | -88.57243 | 32729 ft | 524 kts | 56° |
| 2026-04-24 02:59 | 48.82428 | -88.48128 | 32738 ft | 522 kts | 56° |
| 2026-04-24 03:00 | 48.86433 | -88.38977 | 32742 ft | 520 kts | 56° |
| 2026-04-24 03:00 | 48.90424 | -88.29828 | 32743 ft | 520 kts | 56° |
| 2026-04-24 03:01 | 48.94402 | -88.20676 | 32750 ft | 521 kts | 56° |
| 2026-04-24 03:01 | 48.98368 | -88.11520 | 32755 ft | 520 kts | 56° |
| 2026-04-24 03:02 | 49.02352 | -88.02293 | 32757 ft | 522 kts | 56° |
| 2026-04-24 03:02 | 49.06297 | -87.93123 | 32782 ft | 523 kts | 56° |
| 2026-04-24 03:03 | 49.10294 | -87.83802 | 32781 ft | 523 kts | 56° |
| 2026-04-24 03:03 | 49.14266 | -87.74504 | 32790 ft | 521 kts | 56° |
| 2026-04-24 03:04 | 49.18203 | -87.65260 | 32813 ft | 521 kts | 56° |
| 2026-04-24 03:04 | 49.22129 | -87.56006 | 32814 ft | 519 kts | 56° |
| 2026-04-24 03:05 | 49.26067 | -87.46693 | 32832 ft | 519 kts | 56° |
| 2026-04-24 03:05 | 49.29963 | -87.37447 | 32838 ft | 517 kts | 56° |
| 2026-04-24 03:06 | 49.33864 | -87.28156 | 32845 ft | 518 kts | 56° |
| 2026-04-24 03:06 | 49.37727 | -87.18924 | 32860 ft | 515 kts | 56° |
| 2026-04-24 03:07 | 49.41592 | -87.09656 | 32855 ft | 514 kts | 56° |
| 2026-04-24 03:07 | 49.45405 | -87.00481 | 32869 ft | 512 kts | 56° |
| 2026-04-24 03:08 | 49.51114 | -86.86684 | 32872 ft | 512 kts | 56° |
| 2026-04-24 03:09 | 49.54927 | -86.77425 | 32886 ft | 510 kts | 56° |
| 2026-04-24 03:09 | 49.58694 | -86.68251 | 32884 ft | 512 kts | 56° |